Charm, Ohio
Current Conditions -  °F | °C
As of 7:53 AM on Friday 28 Nov 2014 (Local Time) from KPHD Reporting Station
Overcast Overcast  
Wind Chill: 18°   Ceiling: 4000
Heat Index: 24°   Visibility: 10mi
Dew Point: 13°   Wind: 5mph
Humidity: 62%   Direction: 320°NW
Pressure: 30.36"   Gusts: NA
Location:  40.51°N, 81.78°W
Report Text: KPHD 281253Z AUTO 32004KT 10SM OVC040 M04/M11 A3036 RMK AO2 SLP293 T10441106
Loading
Personal Weather Stations






























Interactive Weather Map New forecast layout! Learn more

10-Day Weather Forecast

Advertisements
Track Severe Weather on mobile